Aviation Digital Data Service (ADDS)

Output produced by TAFs form (1202 UTC 21 June 2018)
found at http://www.aviationweather.gov/adds/tafs/
 
KPDK 211153Z 00000KT 10SM CLR 26/22 A2992 RMK AO2 SLP110 T02560217 10267 20228 53006
KPDK 211128Z 2112/2212 28003KT P6SM BKN150 
     FM211500 27006KT P6SM BKN040 BKN120 
     FM211800 25009KT P6SM VCSH BKN040 
     TEMPO 2119/2123 5SM TSRA OVC030CB 
     FM220100 25008KT P6SM OVC030 
     FM220500 24006KT P6SM BKN015 
     FM220800 24006KT P6SM BKN010